sensor_id;sensor_type;location;lat;lon;timestamp;pressure;altitude;pressure_sealevel;temperature;humidity
2549;BME280;1284;53.520;10.248;2024-01-30T00:01:10;102024.75;;;8.02;79.66
2549;BME280;1284;53.520;10.248;2024-01-30T00:03:35;102017.84;;;8.01;80.05
2549;BME280;1284;53.520;10.248;2024-01-30T00:06:03;102023.50;;;7.86;80.63
2549;BME280;1284;53.520;10.248;2024-01-30T00:08:28;102026.41;;;7.89;80.52
2549;BME280;1284;53.520;10.248;2024-01-30T00:10:54;102021.03;;;7.89;80.50
2549;BME280;1284;53.520;10.248;2024-01-30T00:13:19;102028.06;;;7.99;80.22
2549;BME280;1284;53.520;10.248;2024-01-30T00:15:45;102012.88;;;7.94;80.15
2549;BME280;1284;53.520;10.248;2024-01-30T00:18:11;102012.28;;;7.97;79.67
2549;BME280;1284;53.520;10.248;2024-01-30T00:20:36;102016.66;;;7.93;79.66
2549;BME280;1284;53.520;10.248;2024-01-30T00:23:02;102018.47;;;7.84;80.48
2549;BME280;1284;53.520;10.248;2024-01-30T00:25:27;102024.63;;;7.85;80.46
2549;BME280;1284;53.520;10.248;2024-01-30T00:27:53;102022.66;;;7.77;80.43
2549;BME280;1284;53.520;10.248;2024-01-30T00:30:19;102028.00;;;7.77;80.88
2549;BME280;1284;53.520;10.248;2024-01-30T00:32:45;102013.75;;;7.68;80.75
2549;BME280;1284;53.520;10.248;2024-01-30T00:35:10;102020.94;;;7.59;80.87
2549;BME280;1284;53.520;10.248;2024-01-30T00:37:36;102009.28;;;7.63;81.19
2549;BME280;1284;53.520;10.248;2024-01-30T00:40:02;102015.66;;;7.54;81.26
2549;BME280;1284;53.520;10.248;2024-01-30T00:42:27;102009.31;;;7.50;81.58
2549;BME280;1284;53.520;10.248;2024-01-30T00:44:53;102005.63;;;7.46;81.60
2549;BME280;1284;53.520;10.248;2024-01-30T00:47:18;102003.88;;;7.41;81.59
2549;BME280;1284;53.520;10.248;2024-01-30T00:49:44;102006.44;;;7.32;81.92
2549;BME280;1284;53.520;10.248;2024-01-30T00:52:09;102004.47;;;7.24;81.61
2549;BME280;1284;53.520;10.248;2024-01-30T00:54:35;102004.09;;;7.17;82.23
2549;BME280;1284;53.520;10.248;2024-01-30T00:57:00;101997.22;;;7.11;82.89
2549;BME280;1284;53.520;10.248;2024-01-30T00:59:26;101984.34;;;7.13;82.68
2549;BME280;1284;53.520;10.248;2024-01-30T01:01:51;101996.75;;;7.09;83.22
2549;BME280;1284;53.520;10.248;2024-01-30T01:04:16;101992.38;;;7.13;82.36
2549;BME280;1284;53.520;10.248;2024-01-30T01:09:33;101999.31;;;7.14;82.67
2549;BME280;1284;53.520;10.248;2024-01-30T01:11:58;101997.03;;;7.08;82.80
2549;BME280;1284;53.520;10.248;2024-01-30T01:14:24;102006.75;;;7.17;82.74
2549;BME280;1284;53.520;10.248;2024-01-30T01:16:49;102008.13;;;7.15;83.21
2549;BME280;1284;53.520;10.248;2024-01-30T01:19:15;102011.13;;;7.13;83.64
2549;BME280;1284;53.520;10.248;2024-01-30T01:21:40;102015.69;;;7.26;82.82
2549;BME280;1284;53.520;10.248;2024-01-30T01:24:05;102013.59;;;7.37;82.53
2549;BME280;1284;53.520;10.248;2024-01-30T01:26:31;102009.41;;;7.45;81.75
2549;BME280;1284;53.520;10.248;2024-01-30T01:28:56;102012.69;;;7.42;81.82
2549;BME280;1284;53.520;10.248;2024-01-30T01:31:22;102010.81;;;7.42;82.29
2549;BME280;1284;53.520;10.248;2024-01-30T01:33:50;102011.41;;;7.53;82.07
2549;BME280;1284;53.520;10.248;2024-01-30T01:36:15;102007.91;;;7.52;81.94
2549;BME280;1284;53.520;10.248;2024-01-30T01:38:41;102011.41;;;7.39;82.47
2549;BME280;1284;53.520;10.248;2024-01-30T01:41:06;102007.44;;;7.37;82.50
2549;BME280;1284;53.520;10.248;2024-01-30T01:43:32;102007.53;;;7.45;82.39
2549;BME280;1284;53.520;10.248;2024-01-30T01:45:57;102005.38;;;7.34;82.61
2549;BME280;1284;53.520;10.248;2024-01-30T01:48:23;102007.81;;;7.30;82.93
2549;BME280;1284;53.520;10.248;2024-01-30T01:50:48;102005.75;;;7.27;83.45
2549;BME280;1284;53.520;10.248;2024-01-30T01:53:14;101999.53;;;7.18;83.15
2549;BME280;1284;53.520;10.248;2024-01-30T01:55:40;101995.06;;;7.13;83.98
2549;BME280;1284;53.520;10.248;2024-01-30T01:58:06;101989.78;;;7.08;84.00
2549;BME280;1284;53.520;10.248;2024-01-30T02:00:35;101983.66;;;7.08;83.50
2549;BME280;1284;53.520;10.248;2024-01-30T02:03:02;101977.69;;;6.97;83.83
2549;BME280;1284;53.520;10.248;2024-01-30T02:05:29;101984.66;;;6.98;83.72
2549;BME280;1284;53.520;10.248;2024-01-30T02:07:56;101976.69;;;6.93;83.96
2549;BME280;1284;53.520;10.248;2024-01-30T02:10:21;101971.84;;;6.95;83.99
2549;BME280;1284;53.520;10.248;2024-01-30T02:12:47;101976.41;;;6.95;84.00
2549;BME280;1284;53.520;10.248;2024-01-30T02:15:13;101969.16;;;6.95;84.00
2549;BME280;1284;53.520;10.248;2024-01-30T02:17:39;101972.53;;;6.87;84.33
2549;BME280;1284;53.520;10.248;2024-01-30T02:20:04;101973.44;;;6.83;84.91
2549;BME280;1284;53.520;10.248;2024-01-30T02:22:32;101962.22;;;6.81;84.70
2549;BME280;1284;53.520;10.248;2024-01-30T02:24:59;101951.72;;;6.84;84.52
2549;BME280;1284;53.520;10.248;2024-01-30T02:27:24;101954.38;;;6.84;84.85
2549;BME280;1284;53.520;10.248;2024-01-30T02:29:49;101957.44;;;6.91;84.29
2549;BME280;1284;53.520;10.248;2024-01-30T02:32:15;101947.34;;;6.88;85.04
2549;BME280;1284;53.520;10.248;2024-01-30T02:34:40;101952.69;;;7.15;84.05
2549;BME280;1284;53.520;10.248;2024-01-30T02:37:06;101957.63;;;7.08;84.38
2549;BME280;1284;53.520;10.248;2024-01-30T02:39:31;101951.41;;;6.99;84.82
2549;BME280;1284;53.520;10.248;2024-01-30T02:41:59;101949.03;;;6.98;85.22
2549;BME280;1284;53.520;10.248;2024-01-30T02:44:24;101953.91;;;6.96;85.69
2549;BME280;1284;53.520;10.248;2024-01-30T02:46:50;101941.09;;;7.06;85.92
2549;BME280;1284;53.520;10.248;2024-01-30T02:49:15;101934.31;;;7.22;84.87
2549;BME280;1284;53.520;10.248;2024-01-30T02:51:41;101943.75;;;7.34;84.51
2549;BME280;1284;53.520;10.248;2024-01-30T02:54:06;101948.28;;;7.47;84.18
2549;BME280;1284;53.520;10.248;2024-01-30T02:56:31;101941.78;;;7.25;84.98
2549;BME280;1284;53.520;10.248;2024-01-30T02:58:57;101939.19;;;7.20;85.32
2549;BME280;1284;53.520;10.248;2024-01-30T03:01:22;101947.72;;;7.22;85.27
2549;BME280;1284;53.520;10.248;2024-01-30T03:03:49;101938.88;;;7.22;85.60
2549;BME280;1284;53.520;10.248;2024-01-30T03:06:15;101933.81;;;7.20;85.89
2549;BME280;1284;53.520;10.248;2024-01-30T03:08:42;101938.09;;;7.21;85.81
2549;BME280;1284;53.520;10.248;2024-01-30T03:11:08;101935.72;;;7.20;85.97
2549;BME280;1284;53.520;10.248;2024-01-30T03:13:33;101924.00;;;7.29;85.02
2549;BME280;1284;53.520;10.248;2024-01-30T03:15:59;101927.47;;;7.30;85.59
2549;BME280;1284;53.520;10.248;2024-01-30T03:18:24;101933.75;;;7.25;84.97
2549;BME280;1284;53.520;10.248;2024-01-30T03:20:50;101920.84;;;7.27;85.60
2549;BME280;1284;53.520;10.248;2024-01-30T03:23:15;101921.41;;;7.24;84.88
2549;BME280;1284;53.520;10.248;2024-01-30T03:25:41;101925.56;;;7.30;85.53
2549;BME280;1284;53.520;10.248;2024-01-30T03:28:06;101924.88;;;7.39;85.10
2549;BME280;1284;53.520;10.248;2024-01-30T03:30:32;101913.31;;;7.52;84.13
2549;BME280;1284;53.520;10.248;2024-01-30T03:32:57;101909.97;;;7.46;84.35
2549;BME280;1284;53.520;10.248;2024-01-30T03:35:22;101912.97;;;7.31;85.09
2549;BME280;1284;53.520;10.248;2024-01-30T03:37:48;101904.75;;;7.27;85.65
2549;BME280;1284;53.520;10.248;2024-01-30T03:40:13;101912.97;;;7.31;85.60
2549;BME280;1284;53.520;10.248;2024-01-30T03:42:39;101922.91;;;7.30;85.56
2549;BME280;1284;53.520;10.248;2024-01-30T03:45:05;101919.53;;;7.25;85.72
2549;BME280;1284;53.520;10.248;2024-01-30T03:47:31;101915.34;;;7.32;85.00
2549;BME280;1284;53.520;10.248;2024-01-30T03:49:56;101912.59;;;7.24;85.04
2549;BME280;1284;53.520;10.248;2024-01-30T03:52:22;101914.28;;;7.34;84.84
2549;BME280;1284;53.520;10.248;2024-01-30T03:54:47;101906.53;;;7.18;85.78
2549;BME280;1284;53.520;10.248;2024-01-30T03:57:13;101910.72;;;7.11;85.76
2549;BME280;1284;53.520;10.248;2024-01-30T03:59:41;101910.34;;;7.04;86.46
2549;BME280;1284;53.520;10.248;2024-01-30T04:02:07;101909.38;;;7.00;86.29
2549;BME280;1284;53.520;10.248;2024-01-30T04:04:32;101911.94;;;6.91;87.08
2549;BME280;1284;53.520;10.248;2024-01-30T04:06:58;101909.47;;;6.95;86.19
2549;BME280;1284;53.520;10.248;2024-01-30T04:09:23;101905.31;;;7.02;86.65
2549;BME280;1284;53.520;10.248;2024-01-30T04:11:49;101900.47;;;7.26;85.52
2549;BME280;1284;53.520;10.248;2024-01-30T04:14:14;101895.34;;;7.16;86.32
2549;BME280;1284;53.520;10.248;2024-01-30T04:16:40;101900.47;;;7.26;86.21
2549;BME280;1284;53.520;10.248;2024-01-30T04:19:05;101893.56;;;7.25;86.19
2549;BME280;1284;53.520;10.248;2024-01-30T04:21:31;101887.78;;;7.18;86.37
2549;BME280;1284;53.520;10.248;2024-01-30T04:23:56;101894.44;;;7.21;87.28
2549;BME280;1284;53.520;10.248;2024-01-30T04:26:22;101899.00;;;7.20;87.72
2549;BME280;1284;53.520;10.248;2024-01-30T04:28:47;101899.66;;;7.40;86.73
2549;BME280;1284;53.520;10.248;2024-01-30T04:31:13;101899.16;;;7.38;87.28
2549;BME280;1284;53.520;10.248;2024-01-30T04:33:38;101897.22;;;7.29;86.89
2549;BME280;1284;53.520;10.248;2024-01-30T04:36:04;101903.13;;;7.40;86.91
2549;BME280;1284;53.520;10.248;2024-01-30T04:38:34;101903.97;;;7.49;86.73
2549;BME280;1284;53.520;10.248;2024-01-30T04:41:02;101906.59;;;7.41;87.18
2549;BME280;1284;53.520;10.248;2024-01-30T04:43:28;101905.09;;;7.48;86.61
2549;BME280;1284;53.520;10.248;2024-01-30T04:45:53;101912.63;;;7.46;87.23
2549;BME280;1284;53.520;10.248;2024-01-30T04:48:19;101920.03;;;7.63;86.74
2549;BME280;1284;53.520;10.248;2024-01-30T04:50:44;101918.69;;;7.52;86.73
2549;BME280;1284;53.520;10.248;2024-01-30T04:53:09;101917.34;;;7.63;86.61
2549;BME280;1284;53.520;10.248;2024-01-30T04:55:35;101919.75;;;7.64;86.24
2549;BME280;1284;53.520;10.248;2024-01-30T04:58:01;101913.88;;;7.62;86.54
2549;BME280;1284;53.520;10.248;2024-01-30T05:00:27;101910.09;;;7.63;86.62
2549;BME280;1284;53.520;10.248;2024-01-30T05:02:54;101920.69;;;7.46;87.29
2549;BME280;1284;53.520;10.248;2024-01-30T05:05:20;101912.34;;;7.48;86.78
2549;BME280;1284;53.520;10.248;2024-01-30T05:07:47;101917.69;;;7.48;87.38
2549;BME280;1284;53.520;10.248;2024-01-30T05:10:12;101916.00;;;7.52;87.66
2549;BME280;1284;53.520;10.248;2024-01-30T05:12:39;101916.25;;;7.64;86.71
2549;BME280;1284;53.520;10.248;2024-01-30T05:15:05;101908.94;;;7.56;86.84
2549;BME280;1284;53.520;10.248;2024-01-30T05:17:30;101903.94;;;7.41;87.11
2549;BME280;1284;53.520;10.248;2024-01-30T05:19:56;101899.06;;;7.43;87.92
2549;BME280;1284;53.520;10.248;2024-01-30T05:22:21;101894.09;;;7.36;87.86
2549;BME280;1284;53.520;10.248;2024-01-30T05:24:46;101897.28;;;7.38;87.58
2549;BME280;1284;53.520;10.248;2024-01-30T05:27:12;101897.06;;;7.48;87.47
2549;BME280;1284;53.520;10.248;2024-01-30T05:29:39;101897.59;;;7.37;88.14
2549;BME280;1284;53.520;10.248;2024-01-30T05:32:04;101899.19;;;7.24;88.38
2549;BME280;1284;53.520;10.248;2024-01-30T05:34:31;101893.84;;;7.24;88.87
2549;BME280;1284;53.520;10.248;2024-01-30T05:36:56;101892.59;;;7.44;88.17
2549;BME280;1284;53.520;10.248;2024-01-30T05:39:22;101895.41;;;7.39;88.23
2549;BME280;1284;53.520;10.248;2024-01-30T05:41:47;101895.63;;;7.28;88.37
2549;BME280;1284;53.520;10.248;2024-01-30T05:44:12;101899.50;;;7.22;89.65
2549;BME280;1284;53.520;10.248;2024-01-30T05:46:38;101902.47;;;7.21;89.57
2549;BME280;1284;53.520;10.248;2024-01-30T05:49:03;101892.75;;;7.25;89.38
2549;BME280;1284;53.520;10.248;2024-01-30T05:51:29;101899.41;;;7.50;88.19
2549;BME280;1284;53.520;10.248;2024-01-30T05:53:54;101887.19;;;7.57;88.28
2549;BME280;1284;53.520;10.248;2024-01-30T05:56:20;101883.47;;;7.45;88.45
2549;BME280;1284;53.520;10.248;2024-01-30T05:58:45;101878.41;;;7.43;88.79
2549;BME280;1284;53.520;10.248;2024-01-30T06:01:11;101879.31;;;7.39;88.65
2549;BME280;1284;53.520;10.248;2024-01-30T06:03:36;101888.69;;;7.50;89.22
2549;BME280;1284;53.520;10.248;2024-01-30T06:06:02;101877.50;;;7.48;88.98
2549;BME280;1284;53.520;10.248;2024-01-30T06:08:28;101883.06;;;7.38;89.41
2549;BME280;1284;53.520;10.248;2024-01-30T06:10:53;101880.16;;;7.48;89.12
2549;BME280;1284;53.520;10.248;2024-01-30T06:13:20;101869.03;;;7.54;89.47
2549;BME280;1284;53.520;10.248;2024-01-30T06:15:45;101865.47;;;7.59;88.99
2549;BME280;1284;53.520;10.248;2024-01-30T06:18:11;101869.22;;;7.58;89.22
2549;BME280;1284;53.520;10.248;2024-01-30T06:20:36;101869.22;;;7.58;89.24
2549;BME280;1284;53.520;10.248;2024-01-30T06:23:02;101876.63;;;7.39;89.97
2549;BME280;1284;53.520;10.248;2024-01-30T06:25:27;101868.38;;;7.49;90.01
2549;BME280;1284;53.520;10.248;2024-01-30T06:27:53;101867.03;;;7.60;89.91
2549;BME280;1284;53.520;10.248;2024-01-30T06:30:18;101856.97;;;7.65;89.69
2549;BME280;1284;53.520;10.248;2024-01-30T06:32:44;101848.41;;;7.55;90.18
2549;BME280;1284;53.520;10.248;2024-01-30T06:35:09;101853.94;;;7.58;89.74
2549;BME280;1284;53.520;10.248;2024-01-30T06:37:36;101852.84;;;7.59;90.22
2549;BME280;1284;53.520;10.248;2024-01-30T06:40:02;101848.03;;;7.48;90.17
2549;BME280;1284;53.520;10.248;2024-01-30T06:42:30;101850.59;;;7.53;90.06
2549;BME280;1284;53.520;10.248;2024-01-30T06:44:55;101838.28;;;7.52;89.90
2549;BME280;1284;53.520;10.248;2024-01-30T06:47:21;101848.28;;;7.60;90.32
2549;BME280;1284;53.520;10.248;2024-01-30T06:49:46;101847.16;;;7.61;89.99
2549;BME280;1284;53.520;10.248;2024-01-30T06:52:12;101847.78;;;7.58;89.99
2549;BME280;1284;53.520;10.248;2024-01-30T06:54:37;101850.53;;;7.66;90.03
2549;BME280;1284;53.520;10.248;2024-01-30T06:57:03;101846.31;;;7.74;89.97
2549;BME280;1284;53.520;10.248;2024-01-30T06:59:28;101843.81;;;7.55;89.77
2549;BME280;1284;53.520;10.248;2024-01-30T07:01:54;101852.41;;;7.66;90.38
2549;BME280;1284;53.520;10.248;2024-01-30T07:04:19;101843.25;;;7.67;90.33
2549;BME280;1284;53.520;10.248;2024-01-30T07:06:45;101845.53;;;7.73;90.29
2549;BME280;1284;53.520;10.248;2024-01-30T07:09:11;101843.16;;;7.72;90.37
2549;BME280;1284;53.520;10.248;2024-01-30T07:11:40;101846.63;;;7.72;90.23
2549;BME280;1284;53.520;10.248;2024-01-30T07:14:06;101848.06;;;7.78;90.41
2549;BME280;1284;53.520;10.248;2024-01-30T07:16:31;101849.34;;;7.81;90.83
2549;BME280;1284;53.520;10.248;2024-01-30T07:18:59;101843.19;;;7.80;90.82
2549;BME280;1284;53.520;10.248;2024-01-30T07:21:28;101867.31;;;7.80;90.45
2549;BME280;1284;53.520;10.248;2024-01-30T07:23:54;101854.13;;;7.84;90.67
2549;BME280;1284;53.520;10.248;2024-01-30T07:26:20;101853.75;;;7.77;90.87
2549;BME280;1284;53.520;10.248;2024-01-30T07:28:46;101850.25;;;7.76;91.42
2549;BME280;1284;53.520;10.248;2024-01-30T07:31:12;101862.09;;;7.97;90.43
2549;BME280;1284;53.520;10.248;2024-01-30T07:33:40;101851.06;;;7.99;89.90
2549;BME280;1284;53.520;10.248;2024-01-30T07:36:08;101846.94;;;8.01;89.87
2549;BME280;1284;53.520;10.248;2024-01-30T07:39:00;101844.88;;;7.98;89.90
2549;BME280;1284;53.520;10.248;2024-01-30T07:41:33;101839.59;;;7.85;90.67
2549;BME280;1284;53.520;10.248;2024-01-30T07:44:14;101847.75;;;8.02;90.56
2549;BME280;1284;53.520;10.248;2024-01-30T07:46:44;101842.47;;;7.88;90.24
2549;BME280;1284;53.520;10.248;2024-01-30T07:49:20;101845.72;;;8.07;89.79
2549;BME280;1284;53.520;10.248;2024-01-30T07:51:53;101846.78;;;7.98;90.23
2549;BME280;1284;53.520;10.248;2024-01-30T07:54:56;101858.13;;;7.95;89.65
2549;BME280;1284;53.520;10.248;2024-01-30T08:00:44;101859.41;;;7.97;90.21
2549;BME280;1284;53.520;10.248;2024-01-30T08:03:23;101850.09;;;8.03;89.62
2549;BME280;1284;53.520;10.248;2024-01-30T08:05:57;101853.19;;;8.19;89.10
2549;BME280;1284;53.520;10.248;2024-01-30T08:14:39;101848.72;;;8.06;90.08
2549;BME280;1284;53.520;10.248;2024-01-30T08:17:13;101849.84;;;8.13;89.46
2549;BME280;1284;53.520;10.248;2024-01-30T08:19:52;101850.50;;;8.19;89.87
2549;BME280;1284;53.520;10.248;2024-01-30T08:22:52;101847.91;;;8.28;89.21
2549;BME280;1284;53.520;10.248;2024-01-30T08:25:18;101838.69;;;8.20;89.40
2549;BME280;1284;53.520;10.248;2024-01-30T08:27:44;101840.41;;;8.16;89.82
2549;BME280;1284;53.520;10.248;2024-01-30T08:30:10;101841.41;;;8.29;89.53
2549;BME280;1284;53.520;10.248;2024-01-30T08:32:35;101846.03;;;8.37;89.27
2549;BME280;1284;53.520;10.248;2024-01-30T08:35:01;101847.94;;;8.36;89.23
2549;BME280;1284;53.520;10.248;2024-01-30T08:37:29;101849.84;;;8.36;89.71
2549;BME280;1284;53.520;10.248;2024-01-30T08:39:55;101840.66;;;8.37;89.49
2549;BME280;1284;53.520;10.248;2024-01-30T08:42:20;101838.03;;;8.45;89.15
2549;BME280;1284;53.520;10.248;2024-01-30T08:44:48;101847.03;;;8.49;89.30
2549;BME280;1284;53.520;10.248;2024-01-30T08:47:15;101840.13;;;8.65;88.98
2549;BME280;1284;53.520;10.248;2024-01-30T08:49:42;101838.56;;;8.64;88.83
2549;BME280;1284;53.520;10.248;2024-01-30T08:52:10;101839.22;;;8.78;88.01
2549;BME280;1284;53.520;10.248;2024-01-30T08:54:35;101835.94;;;8.90;87.34
2549;BME280;1284;53.520;10.248;2024-01-30T08:57:01;101827.69;;;8.78;87.92
2549;BME280;1284;53.520;10.248;2024-01-30T08:59:27;101830.97;;;8.66;88.26
2549;BME280;1284;53.520;10.248;2024-01-30T09:01:53;101833.06;;;8.78;88.30
2549;BME280;1284;53.520;10.248;2024-01-30T09:04:23;101826.91;;;8.94;87.79
2549;BME280;1284;53.520;10.248;2024-01-30T09:06:49;101811.44;;;8.91;87.60
2549;BME280;1284;53.520;10.248;2024-01-30T09:09:14;101813.97;;;8.96;87.98
2549;BME280;1284;53.520;10.248;2024-01-30T09:11:40;101807.34;;;9.11;87.42
2549;BME280;1284;53.520;10.248;2024-01-30T09:14:06;101809.72;;;9.21;86.93
2549;BME280;1284;53.520;10.248;2024-01-30T09:16:32;101804.97;;;9.18;87.21
2549;BME280;1284;53.520;10.248;2024-01-30T09:18:57;101802.44;;;9.04;87.36
2549;BME280;1284;53.520;10.248;2024-01-30T09:21:23;101796.28;;;9.21;87.20
2549;BME280;1284;53.520;10.248;2024-01-30T09:23:48;101808.91;;;9.38;86.33
2549;BME280;1284;53.520;10.248;2024-01-30T09:26:14;101804.19;;;9.35;86.24
2549;BME280;1284;53.520;10.248;2024-01-30T09:28:51;101801.31;;;9.40;85.98
2549;BME280;1284;53.520;10.248;2024-01-30T09:31:45;101807.16;;;9.42;86.06
2549;BME280;1284;53.520;10.248;2024-01-30T09:34:46;101799.09;;;9.42;86.27
2549;BME280;1284;53.520;10.248;2024-01-30T09:37:18;101821.84;;;9.53;85.15
2549;BME280;1284;53.520;10.248;2024-01-30T09:42:51;101819.19;;;9.44;85.63
2549;BME280;1284;53.520;10.248;2024-01-30T09:45:56;101817.13;;;9.50;85.38
2549;BME280;1284;53.520;10.248;2024-01-30T09:49:14;101838.31;;;9.51;86.13
2549;BME280;1284;53.520;10.248;2024-01-30T09:52:18;101828.19;;;9.57;85.93
2549;BME280;1284;53.520;10.248;2024-01-30T09:55:29;101841.94;;;9.64;85.82
2549;BME280;1284;53.520;10.248;2024-01-30T09:57:58;101836.53;;;9.72;85.07
2549;BME280;1284;53.520;10.248;2024-01-30T10:00:32;101837.47;;;9.76;85.25
2549;BME280;1284;53.520;10.248;2024-01-30T10:04:04;101836.97;;;9.91;84.27
2549;BME280;1284;53.520;10.248;2024-01-30T10:06:42;101836.97;;;9.91;84.24
2549;BME280;1284;53.520;10.248;2024-01-30T10:09:08;101826.25;;;9.83;85.02
2549;BME280;1284;53.520;10.248;2024-01-30T10:11:37;101822.38;;;10.01;84.02
2549;BME280;1284;53.520;10.248;2024-01-30T10:14:05;101826.66;;;10.02;83.71
2549;BME280;1284;53.520;10.248;2024-01-30T10:16:31;101816.53;;;9.99;84.59
2549;BME280;1284;53.520;10.248;2024-01-30T10:18:56;101809.84;;;10.05;84.51
2549;BME280;1284;53.520;10.248;2024-01-30T10:21:25;101796.22;;;10.19;82.78
2549;BME280;1284;53.520;10.248;2024-01-30T10:23:51;101792.56;;;10.23;83.29
2549;BME280;1284;53.520;10.248;2024-01-30T10:26:17;101789.22;;;10.26;83.10
2549;BME280;1284;53.520;10.248;2024-01-30T10:28:45;101792.09;;;10.21;83.40
2549;BME280;1284;53.520;10.248;2024-01-30T10:31:16;101802.69;;;10.26;83.20
2549;BME280;1284;53.520;10.248;2024-01-30T10:33:45;101788.75;;;10.24;83.71
2549;BME280;1284;53.520;10.248;2024-01-30T10:36:46;101792.34;;;10.37;83.33
2549;BME280;1284;53.520;10.248;2024-01-30T10:39:17;101800.06;;;10.47;82.45
2549;BME280;1284;53.520;10.248;2024-01-30T10:41:49;101794.81;;;10.50;82.92
2549;BME280;1284;53.520;10.248;2024-01-30T10:44:22;101795.44;;;10.47;82.77
2549;BME280;1284;53.520;10.248;2024-01-30T10:46:55;101793.03;;;10.54;82.71
2549;BME280;1284;53.520;10.248;2024-01-30T10:49:30;101793.31;;;10.61;82.75
2549;BME280;1284;53.520;10.248;2024-01-30T10:51:59;101772.94;;;10.72;81.93
2549;BME280;1284;53.520;10.248;2024-01-30T10:54:28;101787.50;;;10.80;81.64
2549;BME280;1284;53.520;10.248;2024-01-30T10:56:57;101781.47;;;10.74;82.30
2549;BME280;1284;53.520;10.248;2024-01-30T10:59:24;101784.25;;;10.86;81.77
2549;BME280;1284;53.520;10.248;2024-01-30T11:01:55;101781.22;;;10.88;81.40
2549;BME280;1284;53.520;10.248;2024-01-30T11:04:36;101785.44;;;10.98;80.85
2549;BME280;1284;53.520;10.248;2024-01-30T11:07:14;101773.41;;;10.95;81.09
2549;BME280;1284;53.520;10.248;2024-01-30T11:09:48;101778.47;;;10.97;81.16
2549;BME280;1284;53.520;10.248;2024-01-30T11:12:24;101777.50;;;11.01;80.46
2549;BME280;1284;53.520;10.248;2024-01-30T11:15:07;101781.03;;;10.93;81.46
2549;BME280;1284;53.520;10.248;2024-01-30T11:17:52;101776.03;;;11.04;81.35
2549;BME280;1284;53.520;10.248;2024-01-30T11:22:55;101781.50;;;11.16;80.73
2549;BME280;1284;53.520;10.248;2024-01-30T11:25:23;101776.69;;;11.21;81.17
2549;BME280;1284;53.520;10.248;2024-01-30T11:27:57;101785.09;;;11.20;81.12
2549;BME280;1284;53.520;10.248;2024-01-30T11:30:40;101779.00;;;11.11;81.99
2549;BME280;1284;53.520;10.248;2024-01-30T11:33:26;101784.44;;;11.23;81.92
2549;BME280;1284;53.520;10.248;2024-01-30T11:35:52;101755.72;;;11.39;80.71
2549;BME280;1284;53.520;10.248;2024-01-30T11:38:36;101759.81;;;11.45;80.57
2549;BME280;1284;53.520;10.248;2024-01-30T11:41:09;101758.88;;;11.41;80.48
2549;BME280;1284;53.520;10.248;2024-01-30T11:43:35;101764.81;;;11.34;80.70
2549;BME280;1284;53.520;10.248;2024-01-30T11:46:01;101770.13;;;11.43;80.65
2549;BME280;1284;53.520;10.248;2024-01-30T11:48:33;101769.25;;;11.51;80.13
2549;BME280;1284;53.520;10.248;2024-01-30T11:51:04;101770.38;;;11.50;80.04
2549;BME280;1284;53.520;10.248;2024-01-30T11:53:29;101764.75;;;11.43;80.57
2549;BME280;1284;53.520;10.248;2024-01-30T11:55:55;101758.78;;;11.37;81.00
2549;BME280;1284;53.520;10.248;2024-01-30T11:58:25;101762.72;;;11.52;80.97
2549;BME280;1284;53.520;10.248;2024-01-30T12:00:56;101757.91;;;11.45;80.97
2549;BME280;1284;53.520;10.248;2024-01-30T12:03:23;101762.25;;;11.38;81.96
2549;BME280;1284;53.520;10.248;2024-01-30T12:05:55;101760.94;;;11.44;81.68
2549;BME280;1284;53.520;10.248;2024-01-30T12:08:22;101757.19;;;11.36;82.24
2549;BME280;1284;53.520;10.248;2024-01-30T12:10:57;101757.34;;;11.52;81.92
2549;BME280;1284;53.520;10.248;2024-01-30T12:13:36;101747.75;;;11.75;80.09
2549;BME280;1284;53.520;10.248;2024-01-30T12:16:02;101743.88;;;11.64;80.97
2549;BME280;1284;53.520;10.248;2024-01-30T12:18:28;101745.47;;;11.65;80.83
2549;BME280;1284;53.520;10.248;2024-01-30T12:21:01;101736.59;;;11.64;80.94
2549;BME280;1284;53.520;10.248;2024-01-30T12:23:28;101742.78;;;11.65;81.56
2549;BME280;1284;53.520;10.248;2024-01-30T12:25:54;101745.72;;;11.72;81.23
2549;BME280;1284;53.520;10.248;2024-01-30T12:31:08;101737.88;;;11.67;81.68
2549;BME280;1284;53.520;10.248;2024-01-30T12:33:35;101739.44;;;11.80;81.66
2549;BME280;1284;53.520;10.248;2024-01-30T12:36:01;101739.78;;;11.78;81.96
2549;BME280;1284;53.520;10.248;2024-01-30T12:38:27;101742.69;;;11.73;81.88
2549;BME280;1284;53.520;10.248;2024-01-30T12:40:58;101734.16;;;11.84;81.55
2549;BME280;1284;53.520;10.248;2024-01-30T12:43:30;101727.06;;;11.79;81.96
2549;BME280;1284;53.520;10.248;2024-01-30T12:45:56;101724.59;;;11.74;82.27
2549;BME280;1284;53.520;10.248;2024-01-30T12:48:22;101723.47;;;11.75;82.54
2549;BME280;1284;53.520;10.248;2024-01-30T12:51:26;101726.97;;;11.88;82.29
2549;BME280;1284;53.520;10.248;2024-01-30T12:53:52;101737.31;;;11.86;82.19
2549;BME280;1284;53.520;10.248;2024-01-30T12:56:17;101741.00;;;11.81;82.53
2549;BME280;1284;53.520;10.248;2024-01-30T12:58:43;101737.53;;;11.81;83.32
2549;BME280;1284;53.520;10.248;2024-01-30T13:01:09;101729.56;;;11.84;83.58
2549;BME280;1284;53.520;10.248;2024-01-30T13:03:35;101739.91;;;11.94;83.21
2549;BME280;1284;53.520;10.248;2024-01-30T13:06:01;101739.47;;;11.92;82.95
2549;BME280;1284;53.520;10.248;2024-01-30T13:08:26;101738.66;;;11.92;83.34
2549;BME280;1284;53.520;10.248;2024-01-30T13:10:52;101739.78;;;12.03;82.93
2549;BME280;1284;53.520;10.248;2024-01-30T13:13:18;101744.06;;;11.92;83.38
2549;BME280;1284;53.520;10.248;2024-01-30T13:15:43;101733.72;;;11.94;83.17
2549;BME280;1284;53.520;10.248;2024-01-30T13:18:11;101732.25;;;11.84;83.89
2549;BME280;1284;53.520;10.248;2024-01-30T13:20:50;101738.88;;;11.87;83.98
2549;BME280;1284;53.520;10.248;2024-01-30T13:23:21;101738.09;;;11.86;84.61
2549;BME280;1284;53.520;10.248;2024-01-30T13:25:58;101744.63;;;11.85;84.19
2549;BME280;1284;53.520;10.248;2024-01-30T13:28:34;101736.78;;;11.92;84.43
2549;BME280;1284;53.520;10.248;2024-01-30T13:31:03;101737.75;;;11.88;84.37
2549;BME280;1284;53.520;10.248;2024-01-30T13:33:39;101736.53;;;11.97;84.68
2549;BME280;1284;53.520;10.248;2024-01-30T13:36:09;101732.59;;;11.95;84.97